Time;durP1;ratioP1;P1;durP2;ratioP2;P2;SDS_P1;SDS_P2;PMS_P1;PMS_P2;Temp;Humidity;BMP_temperature;BMP_pressure;BME280_temperature;BME280_humidity;BME280_pressure;Samples;Min_cycle;Max_cycle;Signal;HPM_P1;HPM_P2
2024/01/03 00:02:50;;;;;;;;;;;;;;;9.03;100.00;94066.09;10552104;28;2001;-68
2024/01/03 00:07:52;;;;;;;;;;;;;;;8.95;100.00;94072.19;10559337;28;2022;-68
2024/01/03 00:12:55;;;;;;;;;;;;;;;9.07;100.00;94069.75;10550688;28;1927;-67
2024/01/03 00:17:57;;;;;;;;;;;;;;;8.89;100.00;94073.41;10559291;28;1890;-69
2024/01/03 00:23:00;;;;;;;;;;;;;;;8.77;100.00;94075.81;10558023;28;2267;-68
2024/01/03 00:28:02;;;;;;;;;;;;;;;8.69;100.00;94063.16;10553129;28;2285;-66
2024/01/03 00:33:05;;;;;;;;;;;;;;;8.61;100.00;94073.50;10559257;28;1990;-66
2024/01/03 00:38:07;;;;;;;;;;;;;;;8.61;100.00;94078.06;10559536;28;2088;-67
2024/01/03 00:43:10;;;;;;;;;;;;;;;8.50;100.00;94077.50;10564224;27;1947;-67
2024/01/03 00:48:12;;;;;;;;;;;;;;;8.47;100.00;94104.09;10561308;27;1934;-69
2024/01/03 00:53:16;;;;;;;;;;;;;;;8.52;100.00;94075.31;10560536;28;2006;-71
2024/01/03 00:58:18;;;;;;;;;;;;;;;8.46;100.00;94079.22;10557186;28;1931;-66
2024/01/03 01:03:21;;;;;;;;;;;;;;;8.33;100.00;94106.75;10561304;28;1984;-67
2024/01/03 01:08:23;;;;;;;;;;;;;;;8.28;100.00;94101.53;10554319;28;2090;-65
2024/01/03 01:13:25;;;;;;;;;;;;;;;8.26;100.00;94087.63;10559834;28;2341;-66
2024/01/03 01:18:28;;;;;;;;;;;;;;;8.23;100.00;94106.97;10551731;28;2358;-66
2024/01/03 01:23:30;;;;;;;;;;;;;;;8.21;100.00;94101.13;10555532;28;2428;-67
2024/01/03 01:28:33;;;;;;;;;;;;;;;8.17;100.00;94118.88;10561774;27;1969;-67
2024/01/03 01:33:35;;;;;;;;;;;;;;;8.26;100.00;94135.81;10555429;27;1919;-67
2024/01/03 01:38:38;;;;;;;;;;;;;;;8.29;100.00;94140.56;10548493;28;1908;-67
2024/01/03 01:43:40;;;;;;;;;;;;;;;8.48;100.00;94152.00;10556581;28;2019;-72
2024/01/03 01:48:43;;;;;;;;;;;;;;;8.58;100.00;94148.28;10552586;27;2255;-67
2024/01/03 01:53:45;;;;;;;;;;;;;;;8.63;100.00;94150.88;10546532;28;2227;-67
2024/01/03 01:58:48;;;;;;;;;;;;;;;8.67;100.00;94143.84;10556600;27;4920;-65
2024/01/03 02:03:50;;;;;;;;;;;;;;;8.81;100.00;94151.84;10556398;27;1940;-66
2024/01/03 02:08:53;;;;;;;;;;;;;;;8.79;100.00;94148.66;10549981;28;1986;-66
2024/01/03 02:13:55;;;;;;;;;;;;;;;8.84;100.00;94152.03;10549849;28;2084;-69
2024/01/03 02:18:58;;;;;;;;;;;;;;;8.80;100.00;94150.25;10548966;28;2036;-66
2024/01/03 02:24:00;;;;;;;;;;;;;;;8.81;100.00;94141.91;10549937;28;2343;-66
2024/01/03 02:29:03;;;;;;;;;;;;;;;8.75;100.00;94147.69;10544473;28;2072;-74
2024/01/03 02:34:05;;;;;;;;;;;;;;;8.59;100.00;94147.22;10560065;28;1950;-75
2024/01/03 02:39:08;;;;;;;;;;;;;;;8.67;100.00;94141.16;10548392;28;2123;-67
2024/01/03 02:44:10;;;;;;;;;;;;;;;8.71;100.00;94144.00;10550331;28;2106;-67
2024/01/03 02:49:12;;;;;;;;;;;;;;;8.61;100.00;94164.56;10555605;28;2253;-66
2024/01/03 02:54:15;;;;;;;;;;;;;;;8.53;100.00;94173.31;10546373;28;1976;-67
2024/01/03 02:59:18;;;;;;;;;;;;;;;8.54;100.00;94158.84;10546570;28;4936;-68
2024/01/03 03:04:20;;;;;;;;;;;;;;;8.53;100.00;94162.59;10555518;28;2069;-67
2024/01/03 03:09:23;;;;;;;;;;;;;;;8.71;100.00;94157.41;10543516;28;1942;-67
2024/01/03 03:14:25;;;;;;;;;;;;;;;8.74;100.00;94162.97;10545907;28;1965;-67
2024/01/03 03:19:30;;;;;;;;;;;;;;;8.76;100.00;94159.97;10548831;28;1945;-67
2024/01/03 03:24:33;;;;;;;;;;;;;;;8.92;100.00;94164.72;10551228;27;2400;-67
2024/01/03 03:29:35;;;;;;;;;;;;;;;8.96;100.00;94153.38;10552272;28;2261;-67
2024/01/03 03:34:38;;;;;;;;;;;;;;;8.96;100.00;94156.06;10550098;28;2295;-67
2024/01/03 03:39:40;;;;;;;;;;;;;;;8.81;100.00;94174.06;10552382;28;2107;-67
2024/01/03 03:44:43;;;;;;;;;;;;;;;8.89;100.00;94159.16;10556330;27;2005;-68
2024/01/03 03:49:46;;;;;;;;;;;;;;;8.83;100.00;94163.03;10553394;28;2512;-67
2024/01/03 03:54:49;;;;;;;;;;;;;;;8.71;100.00;94136.75;10555741;28;2021;-69
2024/01/03 03:59:52;;;;;;;;;;;;;;;8.57;100.00;94163.56;10532161;28;5052;-69
2024/01/03 04:04:54;;;;;;;;;;;;;;;8.69;100.00;94156.91;10546925;28;1915;-66
2024/01/03 04:09:56;;;;;;;;;;;;;;;8.62;100.00;94155.44;10551958;28;1900;-68
2024/01/03 04:14:59;;;;;;;;;;;;;;;8.57;100.00;94163.56;10557969;28;2108;-67
2024/01/03 04:20:02;;;;;;;;;;;;;;;8.49;100.00;94182.25;10556998;28;2078;-68
2024/01/03 04:25:04;;;;;;;;;;;;;;;8.47;100.00;94177.19;10548833;28;2214;-67
2024/01/03 04:30:07;;;;;;;;;;;;;;;8.41;100.00;94181.06;10548810;28;2022;-68
2024/01/03 04:35:09;;;;;;;;;;;;;;;8.35;100.00;94176.88;10546217;28;1882;-67
2024/01/03 04:40:11;;;;;;;;;;;;;;;8.25;100.00;94161.00;10545166;28;2006;-70
2024/01/03 04:45:14;;;;;;;;;;;;;;;8.29;100.00;94170.03;10550940;28;2045;-67
2024/01/03 04:50:17;;;;;;;;;;;;;;;8.27;100.00;94166.84;10532356;28;2213;-67
2024/01/03 04:55:19;;;;;;;;;;;;;;;8.23;100.00;94166.66;10554479;28;1950;-78
2024/01/03 05:00:22;;;;;;;;;;;;;;;8.31;100.00;94175.88;10556063;27;4908;-68
2024/01/03 05:05:25;;;;;;;;;;;;;;;8.32;100.00;94178.25;10551254;28;1915;-68
2024/01/03 05:10:28;;;;;;;;;;;;;;;8.35;100.00;94166.97;10549871;27;2053;-67
2024/01/03 05:15:30;;;;;;;;;;;;;;;8.28;100.00;94181.84;10562169;28;2146;-69
2024/01/03 05:20:32;;;;;;;;;;;;;;;8.25;100.00;94190.44;10558977;28;2068;-66
2024/01/03 05:25:35;;;;;;;;;;;;;;;8.20;100.00;94187.84;10556531;27;2176;-66
2024/01/03 05:30:39;;;;;;;;;;;;;;;8.26;100.00;94189.34;10555420;27;1972;-66
2024/01/03 05:35:41;;;;;;;;;;;;;;;8.35;100.00;94196.44;10553992;27;2272;-67
2024/01/03 05:40:44;;;;;;;;;;;;;;;8.43;100.00;94216.34;10556802;27;2431;-67
2024/01/03 05:45:46;;;;;;;;;;;;;;;8.46;100.00;94231.84;10570073;27;2029;-68
2024/01/03 05:50:48;;;;;;;;;;;;;;;8.45;100.00;94240.94;10562482;28;2109;-68
2024/01/03 05:55:51;;;;;;;;;;;;;;;8.22;100.00;94242.69;10552694;28;4920;-67
2024/01/03 06:00:53;;;;;;;;;;;;;;;8.13;100.00;94255.16;10558618;27;1971;-74
2024/01/03 06:05:56;;;;;;;;;;;;;;;8.01;100.00;94255.63;10563688;28;2081;-76
2024/01/03 06:10:58;;;;;;;;;;;;;;;7.99;100.00;94260.47;10549447;28;2049;-76
2024/01/03 06:16:00;;;;;;;;;;;;;;;8.00;100.00;94262.06;10552787;27;1978;-68
2024/01/03 06:21:03;;;;;;;;;;;;;;;7.86;100.00;94282.66;10560101;28;2239;-69
2024/01/03 06:26:05;;;;;;;;;;;;;;;7.73;100.00;94280.72;10554617;28;2050;-67
2024/01/03 06:31:08;;;;;;;;;;;;;;;7.68;100.00;94291.50;10548140;28;1922;-68
2024/01/03 06:36:10;;;;;;;;;;;;;;;7.64;100.00;94295.84;10563421;28;2340;-68
2024/01/03 06:41:13;;;;;;;;;;;;;;;7.65;100.00;94297.44;10551279;28;2027;-68
2024/01/03 06:46:15;;;;;;;;;;;;;;;7.67;100.00;94295.25;10553998;28;2067;-67
2024/01/03 06:51:17;;;;;;;;;;;;;;;7.66;100.00;94296.34;10557567;28;2039;-76
2024/01/03 06:56:20;;;;;;;;;;;;;;;7.73;100.00;94304.78;10553661;28;1982;-67
2024/01/03 07:01:23;;;;;;;;;;;;;;;7.80;100.00;94303.34;10557884;27;2088;-69
2024/01/03 07:06:26;;;;;;;;;;;;;;;7.99;100.00;94302.50;10554165;28;2010;-68
2024/01/03 07:11:29;;;;;;;;;;;;;;;7.92;100.00;94308.22;10553963;28;1939;-68
2024/01/03 07:16:32;;;;;;;;;;;;;;;7.82;100.00;94314.56;10555724;27;2555;-68
2024/01/03 07:21:34;;;;;;;;;;;;;;;7.64;100.00;94320.72;10555057;27;1982;-71
2024/01/03 07:26:36;;;;;;;;;;;;;;;7.57;100.00;94321.06;10555991;28;1955;-68
2024/01/03 07:31:39;;;;;;;;;;;;;;;7.58;100.00;94333.38;10563149;28;1936;-70
2024/01/03 07:36:41;;;;;;;;;;;;;;;7.80;100.00;94330.09;10557513;28;1945;-69
2024/01/03 07:41:45;;;;;;;;;;;;;;;7.94;100.00;94343.50;10554685;28;2261;-68
2024/01/03 07:46:48;;;;;;;;;;;;;;;8.00;100.00;94326.28;10557699;28;1969;-67
2024/01/03 07:51:51;;;;;;;;;;;;;;;7.98;100.00;94344.53;10558196;28;1899;-68
2024/01/03 07:56:54;;;;;;;;;;;;;;;8.07;100.00;94333.94;10558762;28;4909;-71
2024/01/03 08:01:56;;;;;;;;;;;;;;;8.16;100.00;94324.19;10556468;28;1917;-68
2024/01/03 08:06:58;;;;;;;;;;;;;;;8.51;100.00;94336.16;10568445;28;1978;-67
2024/01/03 08:12:01;;;;;;;;;;;;;;;8.43;100.00;94338.75;10560777;28;1912;-67
2024/01/03 08:17:04;;;;;;;;;;;;;;;8.09;100.00;94331.78;10555035;28;2096;-70
2024/01/03 08:22:06;;;;;;;;;;;;;;;7.85;100.00;94334.56;10556948;28;1918;-68
2024/01/03 08:27:09;;;;;;;;;;;;;;;7.89;100.00;94340.94;10565978;27;2512;-68
2024/01/03 08:32:11;;;;;;;;;;;;;;;7.97;100.00;94342.16;10553616;27;1914;-69
2024/01/03 08:37:14;;;;;;;;;;;;;;;8.18;100.00;94322.00;10556304;28;2108;-68
2024/01/03 08:42:16;;;;;;;;;;;;;;;8.38;100.00;94324.34;10567087;28;2065;-67
2024/01/03 08:47:19;;;;;;;;;;;;;;;8.58;100.00;94327.75;10564231;27;2027;-69
2024/01/03 08:52:21;;;;;;;;;;;;;;;8.81;100.00;94328.66;10546467;27;2376;-69
2024/01/03 08:57:24;;;;;;;;;;;;;;;8.99;100.00;94335.03;10564385;27;4850;-68
2024/01/03 09:02:27;;;;;;;;;;;;;;;9.09;100.00;94327.56;10557495;28;2108;-69
2024/01/03 09:07:29;;;;;;;;;;;;;;;9.19;100.00;94337.28;10551692;28;1984;-75
2024/01/03 09:12:32;;;;;;;;;;;;;;;9.14;100.00;94330.13;10559026;28;1940;-69
2024/01/03 09:17:35;;;;;;;;;;;;;;;9.29;100.00;94334.41;10565635;28;2039;-67
2024/01/03 09:22:37;;;;;;;;;;;;;;;9.36;100.00;94315.25;10558514;28;2225;-67
2024/01/03 09:27:40;;;;;;;;;;;;;;;9.34;100.00;94315.50;10558642;27;1915;-66
2024/01/03 09:32:42;;;;;;;;;;;;;;;9.41;100.00;94305.16;10565320;27;1974;-69
2024/01/03 09:37:45;;;;;;;;;;;;;;;9.48;100.00;94286.78;10551662;28;2004;-71
2024/01/03 09:42:48;;;;;;;;;;;;;;;9.26;100.00;94302.03;10562578;28;2010;-69
2024/01/03 09:47:51;;;;;;;;;;;;;;;9.25;100.00;94295.09;10558560;28;1887;-71
2024/01/03 09:52:55;;;;;;;;;;;;;;;9.62;100.00;94320.84;10558471;28;1966;-70
2024/01/03 09:57:57;;;;;;;;;;;;;;;9.90;100.00;94294.69;10556490;28;4892;-70
2024/01/03 10:03:00;;;;;;;;;;;;;;;10.13;100.00;94304.34;10560610;27;2100;-70
2024/01/03 10:08:02;;;;;;;;;;;;;;;10.37;100.00;94308.59;10553045;28;2186;-70
2024/01/03 10:13:04;;;;;;;;;;;;;;;10.54;100.00;94281.81;10561692;28;2034;-69
2024/01/03 10:18:07;;;;;;;;;;;;;;;10.82;100.00;94288.59;10549580;28;1908;-69
2024/01/03 10:23:12;;;;;;;;;;;;;;;10.89;100.00;94281.97;10547961;28;1947;-69
2024/01/03 10:28:15;;;;;;;;;;;;;;;10.92;100.00;94284.81;10557016;28;2170;-69
2024/01/03 10:33:18;;;;;;;;;;;;;;;10.92;100.00;94286.72;10561323;28;2045;-69
2024/01/03 10:38:22;;;;;;;;;;;;;;;10.81;100.00;94278.13;10558448;28;2080;-71
2024/01/03 10:43:24;;;;;;;;;;;;;;;10.68;100.00;94281.72;10556568;27;2070;-71
2024/01/03 10:48:27;;;;;;;;;;;;;;;10.63;100.00;94285.34;10547523;28;2178;-70
2024/01/03 10:53:30;;;;;;;;;;;;;;;10.77;100.00;94280.66;10552276;28;2057;-71
2024/01/03 10:58:33;;;;;;;;;;;;;;;10.68;100.00;94254.84;10551616;27;4947;-72
2024/01/03 11:03:35;;;;;;;;;;;;;;;10.77;100.00;94286.03;10560034;28;1976;-74
2024/01/03 11:08:38;;;;;;;;;;;;;;;10.71;100.00;94263.09;10570623;27;2176;-71
2024/01/03 11:13:40;;;;;;;;;;;;;;;10.88;100.00;94275.00;10559593;28;1927;-77
2024/01/03 11:18:43;;;;;;;;;;;;;;;10.96;100.00;94231.22;10555238;28;1898;-72
2024/01/03 11:23:46;;;;;;;;;;;;;;;10.91;100.00;94242.91;10550338;28;2092;-70
2024/01/03 11:28:48;;;;;;;;;;;;;;;10.92;100.00;94227.56;10554394;28;2103;-70
2024/01/03 11:33:51;;;;;;;;;;;;;;;10.89;100.00;94214.78;10555821;28;2702;-69
2024/01/03 11:38:53;;;;;;;;;;;;;;;10.91;100.00;94252.88;10549144;28;2101;-77
2024/01/03 11:43:56;;;;;;;;;;;;;;;10.80;100.00;94220.91;10553780;28;1977;-68
2024/01/03 11:48:59;;;;;;;;;;;;;;;10.99;100.00;94211.78;10553134;28;2037;-70
2024/01/03 11:54:01;;;;;;;;;;;;;;;11.13;98.60;94223.16;10557494;28;1981;-73
2024/01/03 11:59:04;;;;;;;;;;;;;;;11.09;98.63;94209.59;10558371;27;2073;-77
2024/01/03 12:04:06;;;;;;;;;;;;;;;11.04;98.94;94211.63;10564953;27;2008;-71
2024/01/03 12:09:09;;;;;;;;;;;;;;;11.07;98.83;94201.03;10562737;28;1874;-77
2024/01/03 12:14:11;;;;;;;;;;;;;;;11.36;95.10;94192.34;10563612;28;1904;-68
2024/01/03 12:19:14;;;;;;;;;;;;;;;11.83;88.61;94187.13;10560613;28;2377;-69
2024/01/03 12:24:17;;;;;;;;;;;;;;;12.03;84.84;94188.34;10563378;28;2426;-70
2024/01/03 12:29:19;;;;;;;;;;;;;;;12.20;80.93;94182.09;10550476;28;7059;-69
2024/01/03 12:34:22;;;;;;;;;;;;;;;12.21;80.10;94185.59;10553350;28;5512;-70
2024/01/03 12:39:43;;;;;;;;;;;;;;;12.02;80.32;94207.50;10546451;27;7770;-71
2024/01/03 12:44:45;;;;;;;;;;;;;;;12.06;79.31;94205.75;10555617;28;5411;-69
2024/01/03 12:49:48;;;;;;;;;;;;;;;11.90;79.88;94192.03;10555267;28;5326;-72
2024/01/03 12:54:50;;;;;;;;;;;;;;;11.86;81.72;94189.16;10554404;28;5363;-68
2024/01/03 12:59:53;;;;;;;;;;;;;;;11.74;82.31;94188.22;10554271;28;2079;-69
2024/01/03 13:04:56;;;;;;;;;;;;;;;11.92;80.37;94170.94;10550862;27;2121;-70
2024/01/03 13:09:59;;;;;;;;;;;;;;;11.86;80.97;94167.63;10548540;28;7929;-68
2024/01/03 13:15:01;;;;;;;;;;;;;;;11.72;81.82;94169.69;10554705;28;5470;-69
2024/01/03 13:20:04;;;;;;;;;;;;;;;11.66;85.10;94170.19;10557476;28;5435;-71
2024/01/03 13:25:07;;;;;;;;;;;;;;;11.55;84.25;94165.13;10548876;28;7986;-71
2024/01/03 13:30:09;;;;;;;;;;;;;;;11.57;95.04;94162.09;10541722;27;5427;-71
2024/01/03 13:35:12;;;;;;;;;;;;;;;11.50;93.17;94140.25;10555020;28;5394;-71
2024/01/03 13:40:14;;;;;;;;;;;;;;;11.43;90.87;94158.78;10545514;28;1900;-71
2024/01/03 13:45:17;;;;;;;;;;;;;;;11.34;92.44;94148.06;10547581;27;5407;-72
2024/01/03 13:50:20;;;;;;;;;;;;;;;11.32;95.02;94151.06;10546282;27;1919;-71
2024/01/03 13:55:22;;;;;;;;;;;;;;;11.45;93.19;94151.19;10547498;28;1871;-71
2024/01/03 14:00:25;;;;;;;;;;;;;;;11.53;92.21;94153.88;10565189;27;3698;-70
2024/01/03 14:05:27;;;;;;;;;;;;;;;11.52;90.75;94155.00;10546105;28;1993;-71
2024/01/03 14:10:30;;;;;;;;;;;;;;;11.45;92.58;94124.28;10555881;28;2473;-71
2024/01/03 14:15:32;;;;;;;;;;;;;;;11.15;96.51;94118.00;10550088;27;2017;-70
2024/01/03 14:20:35;;;;;;;;;;;;;;;10.85;100.00;94115.13;10547029;28;2041;-71
2024/01/03 14:25:39;;;;;;;;;;;;;;;10.68;100.00;94120.47;10541413;28;1958;-72
2024/01/03 14:30:42;;;;;;;;;;;;;;;10.64;100.00;94109.59;10545476;28;1934;-70
2024/01/03 14:35:44;;;;;;;;;;;;;;;10.62;100.00;94106.41;10555641;28;7623;-66
2024/01/03 14:40:48;;;;;;;;;;;;;;;10.46;100.00;94113.34;10542564;28;2005;-66
2024/01/03 14:45:51;;;;;;;;;;;;;;;10.37;100.00;94109.81;10539525;28;2025;-68
2024/01/03 14:50:54;;;;;;;;;;;;;;;10.29;100.00;94098.75;10541082;28;2128;-66
2024/01/03 14:55:56;;;;;;;;;;;;;;;10.27;100.00;94092.13;10545229;28;2343;-67
2024/01/03 15:00:58;;;;;;;;;;;;;;;10.33;100.00;94084.72;10549006;28;2010;-69
2024/01/03 15:06:01;;;;;;;;;;;;;;;10.11;100.00;94090.94;10547949;27;1958;-67
2024/01/03 15:11:04;;;;;;;;;;;;;;;10.08;100.00;94092.34;10551089;28;2017;-66
2024/01/03 15:16:07;;;;;;;;;;;;;;;9.92;100.00;94086.59;10545274;28;1952;-69
2024/01/03 15:21:09;;;;;;;;;;;;;;;9.78;100.00;94083.22;10548327;28;1947;-67
2024/01/03 15:26:12;;;;;;;;;;;;;;;9.69;100.00;94079.72;10552033;27;1943;-68
2024/01/03 15:31:14;;;;;;;;;;;;;;;9.62;100.00;94085.53;10544748;28;1985;-69
2024/01/03 15:36:17;;;;;;;;;;;;;;;9.50;100.00;94079.16;10555038;28;2277;-69
2024/01/03 15:41:19;;;;;;;;;;;;;;;9.40;100.00;94069.47;10546081;28;2124;-69
2024/01/03 15:46:23;;;;;;;;;;;;;;;9.25;100.00;94080.59;10546011;28;2228;-70
2024/01/03 15:51:26;;;;;;;;;;;;;;;9.08;100.00;94073.22;10548229;28;1928;-68
2024/01/03 15:56:29;;;;;;;;;;;;;;;8.99;100.00;94075.84;10548549;28;1960;-69
2024/01/03 16:01:31;;;;;;;;;;;;;;;8.91;100.00;94073.91;10546919;28;1996;-67
2024/01/03 16:06:34;;;;;;;;;;;;;;;8.75;100.00;94083.38;10530820;28;2097;-68
2024/01/03 16:11:36;;;;;;;;;;;;;;;8.81;100.00;94092.88;10545052;28;2072;-67
2024/01/03 16:16:39;;;;;;;;;;;;;;;8.97;100.00;94091.44;10556818;28;2373;-67
2024/01/03 16:21:41;;;;;;;;;;;;;;;8.94;100.00;94095.50;10549377;28;2127;-67
2024/01/03 16:26:44;;;;;;;;;;;;;;;8.83;100.00;94090.69;10547155;28;2144;-70
2024/01/03 16:31:46;;;;;;;;;;;;;;;8.84;100.00;94081.56;10553552;28;1969;-68
2024/01/03 16:36:49;;;;;;;;;;;;;;;8.74;100.00;94097.88;10538500;28;5016;-66
2024/01/03 16:41:51;;;;;;;;;;;;;;;8.70;100.00;94080.81;10548079;28;2016;-67
2024/01/03 16:46:54;;;;;;;;;;;;;;;8.81;100.00;94076.81;10555616;28;1918;-69
2024/01/03 16:51:57;;;;;;;;;;;;;;;8.68;100.00;94067.72;10559327;28;2452;-66
2024/01/03 16:57:02;;;;;;;;;;;;;;;8.84;100.00;94055.56;10561157;27;2033;-67
2024/01/03 17:02:04;;;;;;;;;;;;;;;8.82;100.00;94057.75;10554128;28;2048;-68
2024/01/03 17:07:07;;;;;;;;;;;;;;;8.77;100.00;94059.75;10549890;27;1989;-70
2024/01/03 17:12:09;;;;;;;;;;;;;;;8.72;100.00;94041.94;10559613;28;2077;-67
2024/01/03 17:17:11;;;;;;;;;;;;;;;8.68;100.00;94051.66;10551396;27;2014;-68
2024/01/03 17:22:15;;;;;;;;;;;;;;;8.75;100.00;94045.88;10551034;27;1907;-68
2024/01/03 17:27:18;;;;;;;;;;;;;;;8.82;100.00;94056.97;10552568;28;1937;-67
2024/01/03 17:32:22;;;;;;;;;;;;;;;8.69;100.00;94033.69;10557706;27;1915;-70
2024/01/03 17:37:25;;;;;;;;;;;;;;;8.55;100.00;94036.44;10557481;28;2040;-69
2024/01/03 17:42:27;;;;;;;;;;;;;;;8.53;100.00;94035.94;10550095;28;1919;-68
2024/01/03 17:47:30;;;;;;;;;;;;;;;8.53;100.00;94034.06;10550203;28;7145;-73
2024/01/03 17:52:32;;;;;;;;;;;;;;;8.70;100.00;94027.25;10559622;28;5378;-68
2024/01/03 17:57:35;;;;;;;;;;;;;;;8.56;100.00;94017.38;10549712;28;5428;-64
2024/01/03 18:02:39;;;;;;;;;;;;;;;8.55;100.00;94010.44;10551867;28;4349;-67
2024/01/03 18:07:42;;;;;;;;;;;;;;;8.57;100.00;94013.59;10547997;28;6367;-67
2024/01/03 18:12:44;;;;;;;;;;;;;;;8.57;100.00;94018.16;10547646;28;5320;-66
2024/01/03 18:17:46;;;;;;;;;;;;;;;8.53;100.00;94012.63;10556091;27;2005;-70
2024/01/03 18:22:53;;;;;;;;;;;;;;;8.58;100.00;93996.44;10552019;27;9708;-73
2024/01/03 18:27:56;;;;;;;;;;;;;;;8.60;100.00;93996.16;10550796;28;9460;-71
2024/01/03 18:32:59;;;;;;;;;;;;;;;8.64;100.00;93981.81;10549342;28;5460;-70
2024/01/03 18:38:01;;;;;;;;;;;;;;;8.86;100.00;93993.63;10543767;28;2025;-67
2024/01/03 18:43:04;;;;;;;;;;;;;;;9.02;100.00;93986.78;10544877;28;10381;-71
2024/01/03 18:48:06;;;;;;;;;;;;;;;9.18;100.00;94006.75;10550726;28;5139;-70
2024/01/03 18:53:09;;;;;;;;;;;;;;;9.28;100.00;94010.25;10552340;28;1958;-66
2024/01/03 18:58:12;;;;;;;;;;;;;;;9.39;100.00;93996.28;10546984;27;5312;-67
2024/01/03 19:03:14;;;;;;;;;;;;;;;9.46;100.00;93995.84;10553829;27;2228;-68
2024/01/03 19:08:17;;;;;;;;;;;;;;;9.66;100.00;93999.84;10538102;28;2013;-69
2024/01/03 19:13:22;;;;;;;;;;;;;;;9.65;100.00;93999.06;10544347;27;4909;-67
2024/01/03 19:18:24;;;;;;;;;;;;;;;9.66;100.00;94003.31;10549626;28;2068;-69
2024/01/03 19:23:27;;;;;;;;;;;;;;;9.69;100.00;94001.94;10545811;27;2414;-69
2024/01/03 19:28:30;;;;;;;;;;;;;;;9.66;100.00;93957.72;10542721;28;2013;-68
2024/01/03 19:33:33;;;;;;;;;;;;;;;9.76;100.00;93956.66;10537362;28;1969;-69
2024/01/03 19:38:35;;;;;;;;;;;;;;;9.78;100.00;93961.69;10536692;28;2071;-69
2024/01/03 19:43:38;;;;;;;;;;;;;;;9.87;100.00;93974.03;10549512;27;2080;-68
2024/01/03 19:48:40;;;;;;;;;;;;;;;10.06;98.28;94011.34;10545599;28;5047;-68
2024/01/03 19:53:43;;;;;;;;;;;;;;;10.26;96.11;94034.94;10551818;28;1992;-67
2024/01/03 19:58:46;;;;;;;;;;;;;;;10.18;100.00;94059.03;10552218;28;2096;-69
2024/01/03 20:03:48;;;;;;;;;;;;;;;9.99;100.00;94091.53;10543723;28;2196;-68
2024/01/03 20:08:51;;;;;;;;;;;;;;;9.81;100.00;94093.38;10541464;28;2371;-68
2024/01/03 20:13:54;;;;;;;;;;;;;;;9.65;100.00;94138.56;10551657;28;1910;-68
2024/01/03 20:18:56;;;;;;;;;;;;;;;9.43;100.00;94114.47;10547875;28;2077;-75
2024/01/03 20:23:59;;;;;;;;;;;;;;;9.25;100.00;94145.72;10556904;28;2036;-67
2024/01/03 20:29:01;;;;;;;;;;;;;;;9.01;100.00;94147.91;10559620;27;1998;-66
2024/01/03 20:34:04;;;;;;;;;;;;;;;8.81;100.00;94173.25;10553528;27;2206;-68
2024/01/03 20:39:10;;;;;;;;;;;;;;;8.64;100.00;94168.53;10546750;28;2057;-67
2024/01/03 20:44:12;;;;;;;;;;;;;;;8.52;100.00;94171.72;10551057;27;2091;-70
2024/01/03 20:49:15;;;;;;;;;;;;;;;8.51;100.00;94154.06;10542839;28;5624;-67
2024/01/03 20:54:18;;;;;;;;;;;;;;;8.44;100.00;94180.44;10550150;28;10250;-66
2024/01/03 20:59:20;;;;;;;;;;;;;;;8.42;100.00;94177.28;10555058;28;4622;-67
2024/01/03 21:04:23;;;;;;;;;;;;;;;8.30;100.00;94163.56;10556088;27;5911;-67
2024/01/03 21:09:25;;;;;;;;;;;;;;;8.18;100.00;94171.31;10554694;27;5346;-68
2024/01/03 21:14:29;;;;;;;;;;;;;;;8.18;100.00;94169.41;10558651;28;2077;-68
2024/01/03 21:19:31;;;;;;;;;;;;;;;8.20;100.00;94185.19;10558173;28;1990;-68
2024/01/03 21:24:34;;;;;;;;;;;;;;;8.24;100.00;94175.47;10557513;27;2086;-68
2024/01/03 21:29:36;;;;;;;;;;;;;;;8.29;100.00;94186.09;10560208;27;5309;-67
2024/01/03 21:34:39;;;;;;;;;;;;;;;8.23;100.00;94179.25;10562924;28;1953;-69
2024/01/03 21:39:42;;;;;;;;;;;;;;;8.25;100.00;94179.72;10557380;28;2234;-66
2024/01/03 21:44:44;;;;;;;;;;;;;;;8.27;100.00;94181.03;10561021;27;1931;-66
2024/01/03 21:49:47;;;;;;;;;;;;;;;8.26;100.00;94184.00;10555131;27;2065;-66
2024/01/03 21:54:49;;;;;;;;;;;;;;;8.23;100.00;94189.94;10551933;28;2062;-65
2024/01/03 21:59:53;;;;;;;;;;;;;;;8.25;100.00;94201.16;10553086;28;5078;-67
2024/01/03 22:04:55;;;;;;;;;;;;;;;8.21;100.00;94203.63;10558642;28;2072;-72
2024/01/03 22:09:58;;;;;;;;;;;;;;;8.06;100.00;94180.59;10555126;28;2002;-64
2024/01/03 22:15:00;;;;;;;;;;;;;;;8.09;100.00;94192.63;10560470;27;1873;-65
2024/01/03 22:20:03;;;;;;;;;;;;;;;8.13;100.00;94206.97;10567287;28;2266;-66
2024/01/03 22:25:05;;;;;;;;;;;;;;;8.18;100.00;94208.78;10570267;27;1972;-67
2024/01/03 22:30:08;;;;;;;;;;;;;;;8.17;100.00;94212.53;10568927;28;1824;-67
2024/01/03 22:35:11;;;;;;;;;;;;;;;8.13;100.00;94205.09;10551604;27;2135;-65
2024/01/03 22:40:13;;;;;;;;;;;;;;;7.98;100.00;94205.38;10568381;27;1748;-67
2024/01/03 22:45:16;;;;;;;;;;;;;;;7.61;100.00;94200.94;10565047;27;1977;-66
2024/01/03 22:50:18;;;;;;;;;;;;;;;7.42;100.00;94205.53;10571769;28;1679;-66
2024/01/03 22:55:21;;;;;;;;;;;;;;;7.40;100.00;94205.84;10569377;27;1587;-65
2024/01/03 23:00:24;;;;;;;;;;;;;;;7.12;100.00;94209.44;10569180;28;4948;-68
2024/01/03 23:05:26;;;;;;;;;;;;;;;6.73;100.00;94197.97;10570318;27;2769;-65
2024/01/03 23:10:29;;;;;;;;;;;;;;;6.42;100.00;94234.91;10564991;28;1498;-66
2024/01/03 23:15:31;;;;;;;;;;;;;;;6.26;100.00;94225.50;10568673;28;1635;-71
2024/01/03 23:20:34;;;;;;;;;;;;;;;6.21;100.00;94234.34;10565198;27;1630;-71
2024/01/03 23:25:36;;;;;;;;;;;;;;;6.19;100.00;94241.06;10564450;27;1914;-71
2024/01/03 23:30:39;;;;;;;;;;;;;;;6.25;100.00;94223.94;10577508;27;1597;-69
2024/01/03 23:35:42;;;;;;;;;;;;;;;6.23;100.00;94226.06;10563287;28;1443;-66
2024/01/03 23:40:44;;;;;;;;;;;;;;;6.24;100.00;94230.34;10561726;28;1825;-69
2024/01/03 23:45:46;;;;;;;;;;;;;;;6.25;100.00;94229.25;10545185;28;2276;-66
2024/01/03 23:50:49;;;;;;;;;;;;;;;6.22;100.00;94251.16;10560161;28;1478;-66
2024/01/03 23:55:51;;;;;;;;;;;;;;;6.19;100.00;94267.75;10559154;28;1984;-66
